createdAt,value
2019-03-18T00:02:08.638Z,20.08
2019-03-18T00:04:35.594Z,20.08
2019-03-18T00:07:02.522Z,20.08
2019-03-18T00:09:29.471Z,20.07
2019-03-18T00:11:56.418Z,20.07
2019-03-18T00:14:23.357Z,20.07
2019-03-18T00:16:50.330Z,20.08
2019-03-18T00:19:17.295Z,20.08
2019-03-18T00:21:44.223Z,20.08
2019-03-18T00:24:11.158Z,20.07
2019-03-18T00:26:38.313Z,20.08
2019-03-18T00:29:05.244Z,20.08
2019-03-18T00:31:32.179Z,20.08
2019-03-18T00:33:59.189Z,20.08
2019-03-18T00:36:26.040Z,20.08
2019-03-18T00:38:53.082Z,20.07
2019-03-18T00:41:19.945Z,20.08
2019-03-18T00:43:46.957Z,20.07
2019-03-18T00:46:13.915Z,20.08
2019-03-18T00:48:40.908Z,20.08
2019-03-18T00:51:07.868Z,20.08
2019-03-18T00:53:34.810Z,20.08
2019-03-18T00:56:01.761Z,20.08
2019-03-18T00:58:28.711Z,20.08
2019-03-18T01:00:55.667Z,20.09
2019-03-18T01:03:22.603Z,20.08
2019-03-18T01:05:49.530Z,20.08
2019-03-18T01:08:16.528Z,20.08
2019-03-18T01:10:43.388Z,20.08
2019-03-18T01:13:10.345Z,20.08
2019-03-18T01:15:37.263Z,20.08
2019-03-18T01:18:04.203Z,20.09
2019-03-18T01:20:31.137Z,20.09
2019-03-18T01:22:58.124Z,20.08
2019-03-18T01:25:25.043Z,20.09
2019-03-18T01:27:51.964Z,20.08
2019-03-18T01:30:18.923Z,20.07
2019-03-18T01:32:45.885Z,20.08
2019-03-18T01:35:12.838Z,20.08
2019-03-18T01:37:39.761Z,20.08
2019-03-18T01:40:06.683Z,20.09
2019-03-18T01:42:33.656Z,20.08
2019-03-18T01:45:00.611Z,20.09
2019-03-18T01:47:27.568Z,20.08
2019-03-18T01:49:54.461Z,20.08
2019-03-18T01:52:21.397Z,20.09
2019-03-18T01:54:48.308Z,20.11
2019-03-18T01:57:15.208Z,20.12
2019-03-18T01:59:42.129Z,20.10
2019-03-18T02:02:09.037Z,20.09
2019-03-18T02:04:35.944Z,20.09
2019-03-18T02:07:02.858Z,20.09
2019-03-18T02:09:29.792Z,20.09
2019-03-18T02:11:56.696Z,20.08
2019-03-18T02:14:23.604Z,20.08
2019-03-18T02:16:50.595Z,20.07
2019-03-18T02:19:17.497Z,20.07
2019-03-18T02:21:44.405Z,20.08
2019-03-18T02:24:11.313Z,20.06
2019-03-18T02:26:38.252Z,20.08
2019-03-18T02:29:05.161Z,20.06
2019-03-18T02:31:32.078Z,20.06
2019-03-18T02:33:58.980Z,20.06
2019-03-18T02:36:25.968Z,20.05
2019-03-18T02:38:52.802Z,20.06
2019-03-18T02:41:19.714Z,20.04
2019-03-18T02:43:46.650Z,20.06
2019-03-18T02:46:13.558Z,20.05
2019-03-18T02:48:40.487Z,20.05
2019-03-18T02:51:07.402Z,20.05
2019-03-18T02:53:34.313Z,20.05
2019-03-18T02:56:01.226Z,20.05
2019-03-18T02:58:28.290Z,20.04
2019-03-18T03:00:55.164Z,20.04
2019-03-18T03:03:22.069Z,20.03
2019-03-18T03:05:49.006Z,20.02
2019-03-18T03:08:15.917Z,20.02
2019-03-18T03:10:42.838Z,20.04
2019-03-18T03:13:09.752Z,20.03
2019-03-18T03:15:36.653Z,20.02
2019-03-18T03:18:03.562Z,20.03
2019-03-18T03:20:30.474Z,20.02
2019-03-18T03:22:57.382Z,20.02
2019-03-18T03:25:25.191Z,20.02
2019-03-18T03:27:52.232Z,20.02
2019-03-18T03:30:19.158Z,20.02
2019-03-18T03:32:46.070Z,20.01
2019-03-18T03:35:12.981Z,20.01
2019-03-18T03:37:39.929Z,20.01
2019-03-18T03:40:06.845Z,20.01
2019-03-18T03:42:33.757Z,20.00
2019-03-18T03:45:00.678Z,20.00
2019-03-18T03:47:27.577Z,20.01
2019-03-18T03:49:54.494Z,20.00
2019-03-18T03:52:21.398Z,20.00
2019-03-18T03:54:48.328Z,20.00
2019-03-18T03:57:15.264Z,20.00
2019-03-18T03:59:42.175Z,20.00
2019-03-18T04:02:09.095Z,19.99
2019-03-18T04:04:36.021Z,20.00
2019-03-18T04:07:02.931Z,20.02
2019-03-18T04:09:29.838Z,20.03
2019-03-18T04:11:56.747Z,20.02
2019-03-18T04:14:23.683Z,20.02
2019-03-18T04:17:02.007Z,20.02
2019-03-18T04:19:19.258Z,20.02
2019-03-18T04:21:50.245Z,20.02
2019-03-18T04:24:14.759Z,20.01
2019-03-18T04:26:41.678Z,20.02
2019-03-18T04:29:08.644Z,20.02
2019-03-18T04:31:35.652Z,20.01
2019-03-18T04:34:02.612Z,20.02
2019-03-18T04:36:29.621Z,20.02
2019-03-18T04:38:56.607Z,20.02
2019-03-18T04:41:23.602Z,20.01
2019-03-18T04:43:50.599Z,20.02
2019-03-18T04:46:17.572Z,20.01
2019-03-18T04:48:44.568Z,20.01
2019-03-18T04:51:11.523Z,20.01
2019-03-18T04:53:38.470Z,20.02
2019-03-18T04:56:05.392Z,20.02
2019-03-18T04:58:32.362Z,20.02
2019-03-18T05:00:59.300Z,20.02
2019-03-18T05:03:26.205Z,20.02
2019-03-18T05:05:53.165Z,20.02
2019-03-18T05:08:20.059Z,20.02
2019-03-18T05:10:47.010Z,20.01
2019-03-18T05:13:13.918Z,20.01
2019-03-18T05:15:40.818Z,20.02
2019-03-18T05:18:07.721Z,20.02
2019-03-18T05:20:34.669Z,20.01
2019-03-18T05:23:01.628Z,20.02
2019-03-18T05:25:28.576Z,20.02
2019-03-18T05:27:55.535Z,20.02
2019-03-18T05:30:22.431Z,20.00
2019-03-18T05:32:49.345Z,20.01
2019-03-18T05:35:16.274Z,20.02
2019-03-18T05:37:43.214Z,20.01
2019-03-18T05:40:10.133Z,20.01
2019-03-18T05:42:37.038Z,20.02
2019-03-18T05:45:03.969Z,20.01
2019-03-18T05:47:39.153Z,20.01
2019-03-18T05:49:59.468Z,20.02
2019-03-18T05:52:26.404Z,20.01
2019-03-18T05:54:53.328Z,20.01
2019-03-18T05:57:20.274Z,20.03
2019-03-18T05:59:47.193Z,20.01
2019-03-18T06:02:14.147Z,20.01
2019-03-18T06:04:41.040Z,20.01
2019-03-18T06:07:08.026Z,20.01
2019-03-18T06:09:34.924Z,20.01
2019-03-18T06:12:01.844Z,20.01
2019-03-18T06:14:28.773Z,20.01
2019-03-18T06:16:55.749Z,20.00
2019-03-18T06:19:22.672Z,20.01
2019-03-18T06:21:49.692Z,20.01
2019-03-18T06:24:16.624Z,20.01
2019-03-18T06:26:43.547Z,20.01
2019-03-18T06:29:10.502Z,20.02
2019-03-18T06:31:37.406Z,20.00
2019-03-18T06:34:04.343Z,20.01
2019-03-18T06:36:31.274Z,20.00
2019-03-18T06:38:58.183Z,20.01
2019-03-18T06:41:25.097Z,20.01
2019-03-18T06:43:52.029Z,20.00
2019-03-18T06:46:18.944Z,20.01
2019-03-18T06:48:45.861Z,20.00
2019-03-18T06:51:12.798Z,20.01
2019-03-18T06:53:40.229Z,20.01
2019-03-18T06:56:07.288Z,20.01
2019-03-18T06:58:34.185Z,20.01
2019-03-18T07:01:01.100Z,20.01
2019-03-18T07:03:28.020Z,20.00
2019-03-18T07:05:54.925Z,20.01
2019-03-18T07:08:21.847Z,19.99
2019-03-18T07:10:48.820Z,20.00
2019-03-18T07:13:15.735Z,20.01
2019-03-18T07:15:42.666Z,20.00
2019-03-18T07:18:18.298Z,20.00
2019-03-18T07:20:38.333Z,20.01
2019-03-18T07:23:05.275Z,20.00
2019-03-18T07:25:32.195Z,20.00
2019-03-18T07:27:59.090Z,20.01
2019-03-18T07:30:26.040Z,20.00
2019-03-18T07:32:53.003Z,20.01
2019-03-18T07:35:19.936Z,20.01
2019-03-18T07:37:46.917Z,20.02
2019-03-18T07:40:13.958Z,20.02
2019-03-18T07:42:40.871Z,20.00
2019-03-18T07:45:07.854Z,20.02
2019-03-18T07:47:34.897Z,20.02
2019-03-18T07:50:01.832Z,20.01
2019-03-18T07:52:28.789Z,20.00
2019-03-18T07:54:55.721Z,20.01
2019-03-18T07:57:22.671Z,20.00
2019-03-18T07:59:49.593Z,20.01
2019-03-18T08:02:16.529Z,20.01
2019-03-18T08:04:43.484Z,20.01
2019-03-18T08:07:10.391Z,20.00
2019-03-18T08:09:37.308Z,20.01
2019-03-18T08:12:04.238Z,20.00
2019-03-18T08:14:31.186Z,20.00
2019-03-18T08:16:58.105Z,20.00
2019-03-18T08:19:25.025Z,20.00
2019-03-18T08:21:51.929Z,20.01
2019-03-18T08:24:18.888Z,20.01
2019-03-18T08:26:45.821Z,20.01
2019-03-18T08:29:12.794Z,20.01
2019-03-18T08:31:39.740Z,20.00
2019-03-18T08:34:06.676Z,20.01
2019-03-18T08:36:33.609Z,20.01
2019-03-18T08:39:00.591Z,20.01
2019-03-18T08:41:27.582Z,20.03
2019-03-18T08:43:54.509Z,20.03
2019-03-18T08:46:21.433Z,20.03
2019-03-18T08:48:55.801Z,20.04
2019-03-18T08:51:16.936Z,20.04
2019-03-18T08:53:43.963Z,20.04
2019-03-18T08:56:10.852Z,20.05
2019-03-18T08:58:37.880Z,20.06
2019-03-18T09:01:04.823Z,20.02
2019-03-18T09:03:31.784Z,19.93
2019-03-18T09:05:58.773Z,19.92
2019-03-18T09:08:26.609Z,19.84
2019-03-18T09:10:53.616Z,18.47
2019-03-18T09:13:20.569Z,17.79
2019-03-18T09:15:47.540Z,17.51
2019-03-18T09:18:14.507Z,17.34
2019-03-18T09:20:41.436Z,17.04
2019-03-18T09:23:08.500Z,16.88
2019-03-18T09:25:35.424Z,16.75
2019-03-18T09:28:02.316Z,16.84
2019-03-18T09:30:29.254Z,16.63
2019-03-18T09:32:56.163Z,16.79
2019-03-18T09:35:23.065Z,16.57
2019-03-18T09:37:49.977Z,16.48
2019-03-18T09:40:16.917Z,16.79
2019-03-18T09:42:43.826Z,16.58
2019-03-18T09:45:10.783Z,16.41
2019-03-18T09:47:37.669Z,16.15
2019-03-18T09:50:04.585Z,16.16
2019-03-18T09:52:31.492Z,15.93
2019-03-18T09:54:58.428Z,15.61
2019-03-18T09:57:26.545Z,15.67
2019-03-18T09:59:53.889Z,15.48
2019-03-18T10:02:20.813Z,15.47
2019-03-18T10:04:47.720Z,15.62
2019-03-18T10:07:14.629Z,15.57
2019-03-18T10:09:41.543Z,15.50
2019-03-18T10:12:08.453Z,15.30
2019-03-18T10:14:35.365Z,15.23
2019-03-18T10:17:09.621Z,15.33
2019-03-18T10:19:33.689Z,15.20
2019-03-18T10:21:59.699Z,15.15
2019-03-18T10:24:26.646Z,15.32
2019-03-18T10:26:53.562Z,15.23
2019-03-18T10:29:20.460Z,15.29
2019-03-18T10:31:47.380Z,15.53
2019-03-18T10:34:14.307Z,15.46
2019-03-18T10:36:41.206Z,15.69
2019-03-18T10:39:08.112Z,15.82
2019-03-18T10:41:35.034Z,15.77
2019-03-18T10:44:01.942Z,15.78
2019-03-18T10:46:28.841Z,16.82
2019-03-18T10:48:55.762Z,17.63
2019-03-18T10:51:22.698Z,17.99
2019-03-18T10:53:49.618Z,18.13
2019-03-18T10:56:16.507Z,18.22
2019-03-18T10:58:43.431Z,18.04
2019-03-18T11:01:10.332Z,18.31
2019-03-18T11:03:38.973Z,18.36
2019-03-18T11:06:06.010Z,18.39
2019-03-18T11:08:32.895Z,18.45
2019-03-18T11:10:59.799Z,18.52
2019-03-18T11:13:26.725Z,18.57
2019-03-18T11:15:53.634Z,18.61
2019-03-18T11:18:20.559Z,18.64
2019-03-18T11:20:47.486Z,18.64
2019-03-18T11:23:14.383Z,18.66
2019-03-18T11:25:41.297Z,18.68
2019-03-18T11:28:08.229Z,18.28
2019-03-18T11:30:35.201Z,18.72
2019-03-18T11:33:02.104Z,18.73
2019-03-18T11:35:29.011Z,18.76
2019-03-18T11:37:55.930Z,18.78
2019-03-18T11:40:22.907Z,18.80
2019-03-18T11:42:49.819Z,18.81
2019-03-18T11:45:16.738Z,18.85
2019-03-18T11:47:43.663Z,18.86
2019-03-18T11:50:11.794Z,18.90
2019-03-18T11:52:38.885Z,18.92
2019-03-18T11:55:05.798Z,18.95
2019-03-18T11:57:32.710Z,18.97
2019-03-18T11:59:59.654Z,18.99
2019-03-18T12:02:27.981Z,19.05
2019-03-18T12:04:57.492Z,19.10
2019-03-18T12:07:23.606Z,18.73
2019-03-18T12:09:50.516Z,19.21
2019-03-18T12:12:17.455Z,19.30
2019-03-18T12:14:44.393Z,19.33
2019-03-18T12:17:11.308Z,19.32
2019-03-18T12:19:38.212Z,19.34
2019-03-18T12:22:05.129Z,19.34
2019-03-18T12:24:32.043Z,19.38
2019-03-18T12:26:58.964Z,19.41
2019-03-18T12:29:25.882Z,19.40
2019-03-18T12:31:52.821Z,19.39
2019-03-18T12:34:19.811Z,19.40
2019-03-18T12:36:46.669Z,19.48
2019-03-18T12:39:13.577Z,19.57
2019-03-18T12:41:40.496Z,19.61
2019-03-18T12:44:07.401Z,19.64
2019-03-18T12:46:34.329Z,19.67
2019-03-18T12:49:01.237Z,19.67
2019-03-18T12:51:28.169Z,19.70
2019-03-18T12:53:55.174Z,19.70
2019-03-18T12:56:22.141Z,19.66
2019-03-18T12:58:49.022Z,19.64
2019-03-18T13:01:15.934Z,19.65
2019-03-18T13:03:42.947Z,19.71
2019-03-18T13:06:09.868Z,19.72
2019-03-18T13:08:36.792Z,19.76
2019-03-18T13:11:03.772Z,19.74
2019-03-18T13:13:30.688Z,19.85
2019-03-18T13:15:57.608Z,19.97
2019-03-18T13:18:24.517Z,19.95
2019-03-18T13:20:51.433Z,20.03
2019-03-18T13:23:18.357Z,20.00
2019-03-18T13:25:45.338Z,19.95
2019-03-18T13:28:12.360Z,19.97
2019-03-18T13:30:39.275Z,19.97
2019-03-18T13:33:06.277Z,19.98
2019-03-18T13:35:33.195Z,20.05
2019-03-18T13:38:00.129Z,20.01
2019-03-18T13:40:27.040Z,20.06
2019-03-18T13:42:54.040Z,20.04
2019-03-18T13:45:21.021Z,20.08
2019-03-18T13:47:47.938Z,20.06
2019-03-18T13:50:14.876Z,20.09
2019-03-18T13:52:41.784Z,20.10
2019-03-18T13:55:08.692Z,20.11
2019-03-18T13:57:35.641Z,20.09
2019-03-18T14:00:02.578Z,20.11
2019-03-18T14:02:29.493Z,20.15
2019-03-18T14:04:56.440Z,20.19
2019-03-18T14:07:23.355Z,20.16
2019-03-18T14:09:50.324Z,20.17
2019-03-18T14:12:17.245Z,20.22
2019-03-18T14:14:44.157Z,20.23
2019-03-18T14:17:11.165Z,20.16
2019-03-18T14:19:38.105Z,20.15
2019-03-18T14:22:05.147Z,20.12
2019-03-18T14:24:32.109Z,20.09
2019-03-18T14:26:59.276Z,20.14
2019-03-18T14:29:26.317Z,20.19
2019-03-18T14:31:53.467Z,20.27
2019-03-18T14:34:20.722Z,20.20
2019-03-18T14:36:48.317Z,20.20
2019-03-18T14:39:17.786Z,20.20
2019-03-18T14:41:45.039Z,20.21
2019-03-18T14:44:12.086Z,20.17
2019-03-18T14:46:39.103Z,20.20
2019-03-18T14:49:06.291Z,20.19
2019-03-18T14:51:45.151Z,20.25
2019-03-18T14:54:02.125Z,20.23
2019-03-18T14:56:29.171Z,20.28
2019-03-18T14:58:56.421Z,20.23
2019-03-18T15:01:23.632Z,20.25
2019-03-18T15:03:50.722Z,20.30
2019-03-18T15:06:17.839Z,20.25
2019-03-18T15:08:44.993Z,20.30
2019-03-18T15:11:12.041Z,20.28
2019-03-18T15:13:38.946Z,20.27
2019-03-18T15:16:05.907Z,20.24
2019-03-18T15:18:32.907Z,20.29
2019-03-18T15:20:59.796Z,20.30
2019-03-18T15:23:26.723Z,20.28
2019-03-18T15:25:53.659Z,20.40
2019-03-18T15:28:20.688Z,20.38
2019-03-18T15:30:47.691Z,20.36
2019-03-18T15:33:14.736Z,20.38
2019-03-18T15:35:41.658Z,20.35
2019-03-18T15:38:08.618Z,20.32
2019-03-18T15:40:35.556Z,20.30
2019-03-18T15:43:02.508Z,20.33
2019-03-18T15:45:29.586Z,20.30
2019-03-18T15:47:56.506Z,20.29
2019-03-18T15:50:23.415Z,20.32
2019-03-18T15:52:50.452Z,20.34
2019-03-18T15:55:17.379Z,20.31
2019-03-18T15:57:44.349Z,20.31
2019-03-18T16:00:11.414Z,20.33
2019-03-18T16:02:38.334Z,20.38
2019-03-18T16:05:05.261Z,20.39
2019-03-18T16:07:32.271Z,20.36
2019-03-18T16:09:59.278Z,20.37
2019-03-18T16:12:26.188Z,20.38
2019-03-18T16:14:53.119Z,20.36
2019-03-18T16:17:20.062Z,20.39
2019-03-18T16:19:47.004Z,20.39
2019-03-18T16:22:23.111Z,20.41
2019-03-18T16:24:42.634Z,20.43
2019-03-18T16:27:09.547Z,20.42
2019-03-18T16:29:36.455Z,20.44
2019-03-18T16:32:11.141Z,20.44
2019-03-18T16:34:31.978Z,20.44
2019-03-18T16:36:58.930Z,20.47
2019-03-18T16:39:25.856Z,20.45
2019-03-18T16:41:54.333Z,20.46
2019-03-18T16:44:21.380Z,20.48
2019-03-18T16:46:48.460Z,20.48
2019-03-18T16:49:15.370Z,20.50
2019-03-18T16:51:42.361Z,20.51
2019-03-18T16:54:09.282Z,20.53
2019-03-18T16:56:36.205Z,20.52
2019-03-18T16:59:03.107Z,20.51
2019-03-18T17:01:30.030Z,20.51
2019-03-18T17:03:56.972Z,20.52
2019-03-18T17:06:23.881Z,20.52
2019-03-18T17:08:50.792Z,20.51
2019-03-18T17:11:17.728Z,20.52
2019-03-18T17:13:44.637Z,20.53
2019-03-18T17:16:11.545Z,20.55
2019-03-18T17:18:38.457Z,20.53
2019-03-18T17:21:05.390Z,19.49
2019-03-18T17:23:32.301Z,18.67
2019-03-18T17:25:59.213Z,18.15
2019-03-18T17:28:26.124Z,17.99
2019-03-18T17:30:53.041Z,17.64
2019-03-18T17:33:19.977Z,17.61
2019-03-18T17:35:46.896Z,17.56
2019-03-18T17:38:13.902Z,18.06
2019-03-18T17:40:40.814Z,18.81
2019-03-18T17:43:07.733Z,19.31
2019-03-18T17:45:34.645Z,19.58
2019-03-18T17:48:01.566Z,19.72
2019-03-18T17:50:28.483Z,19.86
2019-03-18T17:53:02.442Z,20.05
2019-03-18T17:55:23.977Z,20.19
2019-03-18T17:57:50.929Z,20.27
2019-03-18T18:00:19.457Z,20.39
2019-03-18T18:02:46.423Z,20.44
2019-03-18T18:05:13.340Z,20.51
2019-03-18T18:07:40.280Z,20.51
2019-03-18T18:10:07.170Z,20.50
2019-03-18T18:12:34.691Z,20.53
2019-03-18T18:15:01.637Z,20.51
2019-03-18T18:17:28.524Z,20.54
2019-03-18T18:19:55.433Z,20.50
2019-03-18T18:22:22.355Z,20.49
2019-03-18T18:24:49.349Z,20.51
2019-03-18T18:27:18.940Z,20.48
2019-03-18T18:29:44.833Z,20.51
2019-03-18T18:32:11.748Z,20.49
2019-03-18T18:34:38.676Z,20.49
2019-03-18T18:37:05.568Z,20.50
2019-03-18T18:39:32.476Z,20.49
2019-03-18T18:41:59.635Z,20.50
2019-03-18T18:44:26.628Z,20.52
2019-03-18T18:46:53.552Z,20.52
2019-03-18T18:49:20.453Z,20.52
2019-03-18T18:51:47.365Z,20.54
2019-03-18T18:54:14.276Z,20.53
2019-03-18T18:56:41.185Z,20.58
2019-03-18T18:59:08.150Z,20.59
2019-03-18T19:01:35.014Z,20.57
2019-03-18T19:04:01.951Z,20.59
2019-03-18T19:06:28.866Z,20.60
2019-03-18T19:08:55.776Z,20.60
2019-03-18T19:11:22.694Z,20.63
2019-03-18T19:13:49.611Z,20.70
2019-03-18T19:16:16.526Z,20.74
2019-03-18T19:18:43.441Z,20.71
2019-03-18T19:21:10.357Z,20.74
2019-03-18T19:23:38.213Z,20.74
2019-03-18T19:26:05.333Z,20.72
2019-03-18T19:28:32.258Z,20.73
2019-03-18T19:30:59.263Z,20.73
2019-03-18T19:33:26.111Z,20.73
2019-03-18T19:35:53.023Z,19.74
2019-03-18T19:38:19.970Z,16.77
2019-03-18T19:40:46.901Z,16.47
2019-03-18T19:43:14.004Z,18.34
2019-03-18T19:45:40.953Z,19.33
2019-03-18T19:48:08.479Z,19.80
2019-03-18T19:50:35.557Z,20.29
2019-03-18T19:53:02.531Z,20.50
2019-03-18T19:55:29.436Z,20.55
2019-03-18T19:57:56.393Z,20.52
2019-03-18T20:00:23.305Z,20.55
2019-03-18T20:02:50.283Z,20.55
2019-03-18T20:05:19.089Z,20.56
2019-03-18T20:07:46.152Z,20.55
2019-03-18T20:10:13.065Z,20.55
2019-03-18T20:12:39.997Z,20.58
2019-03-18T20:15:06.945Z,20.62
2019-03-18T20:17:33.861Z,20.68
2019-03-18T20:20:00.798Z,20.70
2019-03-18T20:22:28.074Z,20.71
2019-03-18T20:24:55.049Z,20.72
2019-03-18T20:27:21.954Z,20.72
2019-03-18T20:29:48.965Z,20.72
2019-03-18T20:32:15.894Z,20.70
2019-03-18T20:34:42.907Z,20.72
2019-03-18T20:37:09.812Z,20.71
2019-03-18T20:39:38.881Z,20.68
2019-03-18T20:42:05.473Z,20.65
2019-03-18T20:44:32.431Z,20.67
2019-03-18T20:46:59.410Z,20.69
2019-03-18T20:49:28.646Z,20.70
2019-03-18T20:51:55.608Z,20.71
2019-03-18T20:54:22.615Z,20.70
2019-03-18T20:56:49.549Z,20.71
2019-03-18T20:59:16.545Z,20.78
2019-03-18T21:01:43.529Z,20.72
2019-03-18T21:04:10.449Z,20.71
2019-03-18T21:06:37.455Z,20.72
2019-03-18T21:09:04.520Z,19.93
2019-03-18T21:11:31.498Z,20.73
2019-03-18T21:13:58.420Z,20.71
2019-03-18T21:16:25.357Z,20.71
2019-03-18T21:18:52.341Z,20.73
2019-03-18T21:21:19.337Z,20.73
2019-03-18T21:23:46.249Z,20.74
2019-03-18T21:26:13.176Z,20.74
2019-03-18T21:28:41.434Z,20.73
2019-03-18T21:31:08.712Z,20.74
2019-03-18T21:33:35.677Z,20.74
2019-03-18T21:36:02.681Z,20.73
2019-03-18T21:38:29.627Z,20.75
2019-03-18T21:40:56.569Z,20.76
2019-03-18T21:43:23.495Z,20.75
2019-03-18T21:45:50.425Z,20.77
2019-03-18T21:48:18.324Z,20.77
2019-03-18T21:50:45.278Z,20.77
2019-03-18T21:53:12.229Z,20.77
2019-03-18T21:55:39.144Z,20.78
2019-03-18T21:58:06.085Z,20.78
2019-03-18T22:00:33.096Z,20.78
2019-03-18T22:03:00.026Z,20.78
2019-03-18T22:05:26.992Z,20.79
2019-03-18T22:07:53.881Z,20.79
2019-03-18T22:10:20.787Z,19.43
2019-03-18T22:12:47.733Z,20.80
2019-03-18T22:15:14.635Z,20.79
2019-03-18T22:17:41.597Z,20.80
2019-03-18T22:20:08.511Z,20.80
2019-03-18T22:22:35.424Z,20.80
2019-03-18T22:25:02.385Z,20.81
2019-03-18T22:27:29.355Z,20.81
2019-03-18T22:29:56.294Z,20.82
2019-03-18T22:32:25.008Z,20.82
2019-03-18T22:34:51.987Z,20.81
2019-03-18T22:37:18.903Z,20.81
2019-03-18T22:39:45.840Z,20.82
2019-03-18T22:42:12.764Z,20.81
2019-03-18T22:44:39.664Z,20.82
2019-03-18T22:47:06.709Z,20.82
2019-03-18T22:49:33.632Z,20.83
2019-03-18T22:52:00.616Z,20.83
2019-03-18T22:54:27.551Z,20.84
2019-03-18T22:56:54.535Z,20.84
2019-03-18T22:59:21.456Z,20.84
2019-03-18T23:01:48.528Z,20.85
2019-03-18T23:04:15.422Z,20.84
2019-03-18T23:06:42.349Z,20.86
2019-03-18T23:09:09.803Z,20.84
2019-03-18T23:11:37.296Z,20.85
2019-03-18T23:14:04.331Z,20.85
2019-03-18T23:16:31.240Z,20.86
2019-03-18T23:18:58.229Z,20.85
2019-03-18T23:21:25.221Z,20.85
2019-03-18T23:23:52.313Z,20.85
2019-03-18T23:26:19.244Z,20.84
2019-03-18T23:28:46.143Z,20.86
2019-03-18T23:31:13.048Z,20.85
2019-03-18T23:33:40.095Z,20.86
2019-03-18T23:36:07.094Z,20.85
2019-03-18T23:38:33.948Z,20.86
2019-03-18T23:41:00.984Z,20.86
2019-03-18T23:43:28.082Z,20.86
2019-03-18T23:45:55.012Z,20.86
2019-03-18T23:48:21.970Z,20.87
2019-03-18T23:50:48.902Z,20.87
2019-03-18T23:53:15.821Z,20.88
2019-03-18T23:55:42.768Z,20.87
2019-03-18T23:58:09.697Z,20.87
